aviador You're here:

BIAR Decoded Metar

AKUREYRI in ICELAND
Report Time2017-09-23 11:00:00
UTC Time2017-09-23 11:12:22
Flight Rules mvfr MVFR
Wind310° at 06 kt
W.Decomp.*RWY 01: 4.2 kt HW 4.3 kt LCW
W.Rank310° ranks 12
Current wind is below 310° avg. (6.0)
Visibility9999 m
Phenomena:Drizzle
Clouds:Broken 029 Hf
Overcast 035 Hf
Expected CloudBase > 1,200 ft AGL from Temp-Dew spread
Ceiling2,900 ft
Temp08°C (ISA -7)
Dew Point05°C (82% RH)
AAT4.7°C
QNH0998 hPa
Density Alt-200 ft
Elevation7 ft
Report Wrong Elevation
Raw Report
BIAR 231100Z 31006KT 9999 DZ BKN029 OVC035 08/05 Q0998=

Extra information for BIAR:More info

Metar Taf Metar & Taf Last 4 Metars F.Rules Stats Wind Profile Meteogram Temp Stats Airport Information Weather charts Add Link Nearby VenuesMetar ALERT Operation Metar Decoded Social comments